createdAt,value
2022-10-12T00:01:20.891Z,0
2022-10-12T00:06:44.355Z,0
2022-10-12T00:17:36.099Z,0
2022-10-12T00:22:59.673Z,0
2022-10-12T00:28:22.250Z,0
2022-10-12T00:33:44.936Z,0
2022-10-12T00:39:07.463Z,0
2022-10-12T00:44:29.859Z,0
2022-10-12T00:55:22.888Z,0
2022-10-12T01:00:51.664Z,0
2022-10-12T01:22:25.042Z,0
2022-10-12T01:27:47.714Z,0
2022-10-12T01:33:12.965Z,0
2022-10-12T01:38:38.155Z,0
2022-10-12T01:44:00.730Z,0
2022-10-12T01:49:33.314Z,0
2022-10-12T01:54:56.200Z,0
2022-10-12T02:00:20.146Z,0
2022-10-12T02:05:42.475Z,0
2022-10-12T02:17:30.285Z,0
2022-10-12T02:22:52.551Z,0
2022-10-12T02:28:18.246Z,0
2022-10-12T02:33:41.085Z,0
2022-10-12T02:39:03.944Z,0
2022-10-12T02:44:43.890Z,0
2022-10-12T02:50:07.250Z,0
2022-10-12T02:55:32.585Z,0
2022-10-12T03:01:40.449Z,0
2022-10-12T03:07:03.914Z,0
2022-10-12T03:12:26.460Z,0
2022-10-12T03:17:48.757Z,0
2022-10-12T03:23:11.402Z,0
2022-10-12T03:28:34.107Z,0
2022-10-12T03:33:59.677Z,0
2022-10-12T03:50:13.432Z,0
2022-10-12T03:56:01.510Z,0
2022-10-12T04:01:27.059Z,0
2022-10-12T04:06:49.389Z,0
2022-10-12T04:12:11.748Z,0
2022-10-12T04:17:42.366Z,0
2022-10-12T04:23:04.873Z,0
2022-10-12T04:28:27.525Z,0
2022-10-12T04:33:52.198Z,0
2022-10-12T04:39:22.549Z,0
2022-10-12T04:44:44.906Z,0
2022-10-12T04:50:07.573Z,0
2022-10-12T04:55:32.965Z,0
2022-10-12T05:00:55.097Z,0
2022-10-12T05:17:13.207Z,0
2022-10-12T05:22:53.521Z,0
2022-10-12T05:28:35.876Z,0
2022-10-12T05:34:03.678Z,0
2022-10-12T05:39:25.927Z,1
2022-10-12T05:45:05.835Z,10
2022-10-12T05:50:29.624Z,18
2022-10-12T05:55:51.942Z,21.1
2022-10-12T06:01:14.413Z,21.9
2022-10-12T06:06:45.767Z,24.8
2022-10-12T06:12:08.324Z,28.2
2022-10-12T06:17:33.277Z,33.4
2022-10-12T06:22:58.449Z,42.3
2022-10-12T06:28:26.900Z,72.8
2022-10-12T06:33:49.513Z,86.5
2022-10-12T06:39:12.082Z,78.8
2022-10-12T06:44:34.944Z,55.2
2022-10-12T06:50:47.606Z,85.6
2022-10-12T06:56:09.928Z,102.9
2022-10-12T07:01:32.770Z,121.7
2022-10-12T07:06:55.782Z,128.5
2022-10-12T07:12:18.387Z,158.3
2022-10-12T07:17:50.281Z,241.3
2022-10-12T07:23:22.657Z,329.2
2022-10-12T07:28:45.304Z,1425.6
2022-10-12T07:39:31.407Z,314.9
2022-10-12T07:44:57.089Z,549.5
2022-10-12T07:50:19.688Z,274
2022-10-12T07:55:44.898Z,404.4
2022-10-12T08:01:10.870Z,426.4
2022-10-12T08:06:37.154Z,655.5
2022-10-12T08:12:09.438Z,324.3
2022-10-12T08:17:31.552Z,800.8
2022-10-12T08:23:04.602Z,971.2
2022-10-12T08:28:28.482Z,1416.7
2022-10-12T08:33:52.020Z,1225.6
2022-10-12T08:39:17.976Z,351.9
2022-10-12T08:44:40.468Z,566.9
2022-10-12T08:50:03.702Z,650
2022-10-12T08:55:27.630Z,1112.6
2022-10-12T09:00:51.297Z,1379.9
2022-10-12T09:06:16.782Z,1401.3
2022-10-12T09:11:40.042Z,1402.3
2022-10-12T09:17:02.517Z,1660.7
2022-10-12T09:27:47.882Z,1249.7
2022-10-12T09:33:10.719Z,1701.7
2022-10-12T09:38:33.567Z,1473.5
2022-10-12T09:43:56.654Z,1167.7
2022-10-12T09:49:18.607Z,1227
2022-10-12T10:00:06.630Z,727.3
2022-10-12T10:05:33.361Z,1759.2
2022-10-12T10:10:56.651Z,1665.6
2022-10-12T10:16:20.024Z,1866.1
2022-10-12T10:21:42.673Z,1472.8
2022-10-12T10:27:07.767Z,2014.4
2022-10-12T10:32:33.820Z,1155.9
2022-10-12T10:37:55.829Z,1660.6
2022-10-12T10:43:19.395Z,1403.5
2022-10-12T10:48:41.685Z,1519.8
2022-10-12T10:59:44.095Z,1622.9
2022-10-12T11:05:06.932Z,956
2022-10-12T11:10:29.194Z,875.2
2022-10-12T11:15:52.184Z,870.3
2022-10-12T11:21:14.347Z,819.9
2022-10-12T11:32:06.431Z,1305.2
2022-10-12T11:37:29.347Z,1747.4
2022-10-12T11:42:52.480Z,1853.5
2022-10-12T11:48:15.304Z,605.7
2022-10-12T11:53:38.808Z,1312.1
2022-10-12T11:59:06.141Z,1177.8
2022-10-12T12:04:47.496Z,735
2022-10-12T12:10:19.963Z,1736.7
2022-10-12T12:16:01.648Z,1918.1
2022-10-12T12:21:24.995Z,2178.9
2022-10-12T12:26:53.402Z,1019.2
2022-10-12T12:32:14.218Z,780
2022-10-12T12:37:36.925Z,861.2
2022-10-12T12:43:20.672Z,1635.2
2022-10-12T12:48:43.893Z,831.8
2022-10-12T12:59:30.958Z,1424.6
2022-10-12T13:04:56.973Z,1420.9
2022-10-12T13:10:19.786Z,1050.9
2022-10-12T13:15:58.417Z,571.5
2022-10-12T13:21:19.933Z,398.1
2022-10-12T13:26:49.630Z,569.4
2022-10-12T13:32:12.049Z,786
2022-10-12T13:42:46.635Z,1200
2022-10-12T13:48:09.245Z,765.5
2022-10-12T13:53:31.637Z,943.6
2022-10-12T13:58:53.968Z,1120.5
2022-10-12T14:04:19.381Z,698
2022-10-12T14:09:41.806Z,860
2022-10-12T14:15:06.717Z,526.4
2022-10-12T14:26:13.950Z,540
2022-10-12T14:31:35.982Z,333.9
2022-10-12T14:36:57.280Z,192.7
2022-10-12T14:42:40.063Z,160.7
2022-10-12T14:48:02.635Z,159.2
2022-10-12T14:53:25.919Z,148.6
2022-10-12T14:58:48.747Z,151.3
2022-10-12T15:04:11.199Z,108.6
2022-10-12T15:09:36.808Z,96.3
2022-10-12T15:15:08.032Z,63.7
2022-10-12T15:26:17.040Z,73.2
2022-10-12T15:31:39.166Z,83.6
2022-10-12T15:37:09.189Z,98.6
2022-10-12T15:42:32.107Z,138
2022-10-12T15:47:54.777Z,144.4
2022-10-12T15:53:17.161Z,120.5
2022-10-12T15:58:45.183Z,112.3
2022-10-12T16:04:07.499Z,102.4
2022-10-12T16:09:30.008Z,74
2022-10-12T16:14:55.442Z,48.2
2022-10-12T16:20:17.898Z,33.8
2022-10-12T16:31:09.826Z,31.2
2022-10-12T16:36:41.546Z,29.7
2022-10-12T16:42:04.170Z,18.1
2022-10-12T16:47:31.370Z,16.8
2022-10-12T16:52:53.940Z,6
2022-10-12T16:58:16.119Z,2
2022-10-12T17:03:41.624Z,0
2022-10-12T17:09:11.979Z,0
2022-10-12T17:14:34.637Z,0
2022-10-12T17:19:57.298Z,0
2022-10-12T17:25:22.550Z,0
2022-10-12T17:30:47.770Z,0
2022-10-12T17:36:15.922Z,0
2022-10-12T17:41:38.655Z,0
2022-10-12T17:47:01.075Z,0
2022-10-12T17:52:31.190Z,0
2022-10-12T17:57:53.857Z,0
2022-10-12T18:03:16.692Z,0
2022-10-12T18:08:39.231Z,0
2022-10-12T18:19:24.462Z,0
2022-10-12T18:24:46.948Z,0
2022-10-12T18:30:09.394Z,0
2022-10-12T18:35:31.735Z,0
2022-10-12T18:40:54.134Z,0
2022-10-12T18:46:16.659Z,0
2022-10-12T18:51:39.138Z,0
2022-10-12T18:57:01.717Z,0
2022-10-12T19:02:23.853Z,0
2022-10-12T19:07:49.199Z,0
2022-10-12T19:13:11.574Z,0
2022-10-12T19:18:33.894Z,0
2022-10-12T19:23:56.154Z,0
2022-10-12T19:29:18.835Z,0
2022-10-12T19:34:52.952Z,0
2022-10-12T19:40:15.519Z,0
2022-10-12T19:45:45.614Z,0
2022-10-12T19:56:30.795Z,0
2022-10-12T20:01:55.833Z,0
2022-10-12T20:07:27.491Z,0
2022-10-12T20:12:50.048Z,0
2022-10-12T20:18:15.039Z,0
2022-10-12T20:23:37.854Z,0
2022-10-12T20:29:00.607Z,0
2022-10-12T20:34:23.252Z,0
2022-10-12T20:39:45.852Z,0
2022-10-12T20:45:08.520Z,0
2022-10-12T20:50:37.174Z,0
2022-10-12T20:55:59.691Z,0
2022-10-12T21:01:22.394Z,0
2022-10-12T21:06:44.962Z,0
2022-10-12T21:12:07.263Z,0
2022-10-12T21:17:29.684Z,0
2022-10-12T21:22:55.256Z,0
2022-10-12T21:28:23.821Z,0
2022-10-12T21:33:49.455Z,0
2022-10-12T21:50:08.641Z,0
2022-10-12T21:55:31.288Z,0
2022-10-12T22:00:57.063Z,0
2022-10-12T22:06:22.525Z,0
2022-10-12T22:11:50.927Z,0
2022-10-12T22:17:14.470Z,0
2022-10-12T22:22:40.377Z,0
2022-10-12T22:28:05.847Z,0
2022-10-12T22:33:28.452Z,0
2022-10-12T22:38:50.953Z,0
2022-10-12T22:44:13.707Z,0
2022-10-12T22:49:37.162Z,0
2022-10-12T22:55:08.598Z,0
2022-10-12T23:00:34.833Z,0
2022-10-12T23:05:57.373Z,0
2022-10-12T23:11:20.114Z,0
2022-10-12T23:16:42.732Z,0
2022-10-12T23:22:26.260Z,0
2022-10-12T23:27:54.970Z,0
2022-10-12T23:33:17.590Z,0
2022-10-12T23:39:03.097Z,0
2022-10-12T23:44:46.511Z,0
2022-10-12T23:50:12.046Z,0
